Terminal Aerodrome Forecast
Issued by NWS

Home | Current Version | Previous Version | Graphics & Text | Print | Product List | Glossary On
Versions: 1 2 3 4 5 6 7 8 9 10 11 12 13 14 15 16
000
FTUS43 KMPX 231136
TAFRWF
TAF
KRWF 231136Z 2312/2412 VRB04KT P6SM -SHRA SCT060 OVC120
     FM231600 16009KT P6SM OVC060
     FM240200 13005KT P6SM VCSH SCT025 OVC045
     FM240900 12008KT 5SM -RA BR BKN025=

USA.gov is the U.S. government's official web portal to all federal, state and local government web resources and services.